Swords, Ireland
Current Conditions -  °F | °C
As of 10:00 PM on Tuesday 25 Nov 2014 (Local Time) from EIDW Reporting Station
Broken Clouds Broken Clouds  
Wind Chill: 43°   Ceiling: 5000
Heat Index: 43°   Visibility: 6mi
Dew Point: 43°   Wind: 2mph
Humidity: 100%   Direction: 160°SSE
Pressure: 30.06"   Gusts: NA
Location:  53.45°N, 6.22°W
Report Text: EIDW 252200Z 16002KT 9999 FEW020 BKN050 06/06 Q1018 TEMPO 5000
Loading
Personal Weather Stations






























Interactive Weather Map New forecast layout! Learn more

10-Day Weather Forecast

Advertisements
Track Severe Weather on mobile